Aérodrome :







RETROUVEZ-NOUS SUR...

 
LOGIN :

S'inscrire | Disclaimer

   EN    FR    IT 

 









Légende :    VFR   VFR Marginal   IFR   IFR Intensif   IFR Très Intensif
Visi : 
Plafond : 
>= 8 km
>= 3000ft
5 à 8 km
1000 à 3000 ft
1500m à 5 km
500 à 1000 ft
800 à 1500m
200 à 500 ft
< 800m
< 200 ft
Symboles :   Orages  Brouillard  Fortes neiges  Fortes précipitations  Vent > 20 kt






- Altitude de l'aérodrome : 198 ft
- Code IATA : STM


SBSN - Maestro Wilson Fonseca Int.

DERNIER METAR :
  • 020600Z 14004KT 5000 -RA SCT013 OVC100 24/24 Q1010 RETS

METARs EXPIRÉS :
  • 020500Z 13009KT 5000 -TSRA BKN010 FEW020CB OVC100 24/24 Q1011
  • 020400Z 18004KT 6000 -RA SCT015 BKN100 25/25 Q1011

TAF TAF SBSN
Valide du 02 à 06h jusqu'au 03 à 06h UTC


020300Z 0206/0306 12005KT 7000 FEW015 TN24/0210Z TX29/0218Z
PROB30 0206/0211 TS BKN010 FEW030CB
BECMG 0215/0217 FEW025 FEW030TCU
BECMG 0217/0219 06005KT
BECMG 0222/0224 16005KT FEW017
PROB30 0304/0306 TS SCT015 FEW020CB RMK PHI



MET'MAP, la Météo Aéronautique d'un coup d'oeil ! - Copyright ORBIFLY Décembre 2007 - Disclaimer

ORBIFLY MET'MAP TEAM :

Programmation & Développement : Alexandra Zaïnal
Sur une idée originale de : Baudouin d'Aumeries
Assistance à la programmation : Marc-Olivier Méhu
Soutien technique & logistique : Manuel Goepfert

Contact : metmap@orbifly.com




SOURCES & CREDITS :

   NOAA